Time;durP1;ratioP1;P1;durP2;ratioP2;P2;SDS_P1;SDS_P2;PMS_P1;PMS_P2;Temp;Humidity;BMP_temperature;BMP_pressure;BME280_temperature;BME280_humidity;BME280_pressure;Samples;Min_cycle;Max_cycle;Signal;HPM_P1;HPM_P2
2023/03/27 00:01:22;;;;;;;5.60;4.20;;;;;;;4.99;70.18;99260.57;108174;1259;73766;-71
2023/03/27 00:03:52;;;;;;;5.40;3.80;;;;;;;4.97;70.19;99258.08;108165;1254;61240;-75
2023/03/27 00:06:20;;;;;;;6.60;4.70;;;;;;;4.96;70.24;99257.05;108142;1254;61160;-70
2023/03/27 00:08:49;;;;;;;7.50;5.00;;;;;;;4.92;70.43;99259.89;108188;1254;74421;-72
2023/03/27 00:11:23;;;;;;;7.70;5.00;;;;;;;4.87;70.54;99259.10;108136;1254;73053;-72
2023/03/27 00:13:53;;;;;;;7.90;5.60;;;;;;;4.86;70.69;99254.48;108131;1259;73540;-72
2023/03/27 00:16:21;;;;;;;8.60;5.60;;;;;;;4.86;70.77;99255.70;108101;1254;61231;-71
2023/03/27 00:19:00;;;;;;;11.50;5.70;;;;;;;4.86;70.95;99254.33;108153;1255;61311;-71
2023/03/27 00:21:33;;;;;;;9.10;5.70;;;;;;;4.84;70.91;99253.84;108111;1254;75398;-72
2023/03/27 00:24:01;;;;;;;7.10;5.30;;;;;;;4.84;71.07;99259.61;108092;1254;72678;-71
2023/03/27 00:26:29;;;;;;;7.90;6.10;;;;;;;4.83;71.16;99258.70;108077;1254;72817;-71
2023/03/27 00:28:56;;;;;;;8.70;6.00;;;;;;;4.84;71.28;99259.50;108092;1254;61240;-71
2023/03/27 00:31:23;;;;;;;10.20;5.70;;;;;;;4.85;71.34;99258.71;108200;1254;61240;-72
2023/03/27 00:33:50;;;;;;;8.50;5.70;;;;;;;4.88;71.36;99260.27;108147;1254;74658;-72
2023/03/27 00:36:20;;;;;;;8.50;5.50;;;;;;;4.88;71.28;99258.95;107848;1257;74054;-72
2023/03/27 00:38:51;;;;;;;7.70;5.50;;;;;;;4.88;71.30;99254.08;108076;1254;71590;-71
2023/03/27 00:41:22;;;;;;;8.20;6.10;;;;;;;4.87;71.35;99251.59;108094;1254;61344;-71
2023/03/27 00:43:52;;;;;;;7.50;5.50;;;;;;;4.86;71.39;99248.14;108115;1255;62216;-72
2023/03/27 00:46:30;;;;;;;8.90;5.80;;;;;;;4.87;71.30;99246.98;108052;1255;74872;-72
2023/03/27 00:48:57;;;;;;;8.40;5.70;;;;;;;4.88;71.23;99243.98;108158;1259;70778;-72
2023/03/27 00:51:25;;;;;;;7.90;5.10;;;;;;;4.89;71.28;99244.56;107907;1257;74058;-71
2023/03/27 00:53:52;;;;;;;9.40;5.30;;;;;;;4.90;71.39;99247.38;108136;1254;61142;-71
2023/03/27 00:56:20;;;;;;;9.20;5.50;;;;;;;4.91;71.47;99248.77;107930;1254;61403;-71
2023/03/27 00:58:53;;;;;;;7.20;5.30;;;;;;;4.91;71.44;99252.47;108053;1254;74044;-72
2023/03/27 01:01:20;;;;;;;7.40;5.10;;;;;;;4.91;71.50;99261.26;108095;1254;71608;-72
2023/03/27 01:03:48;;;;;;;7.30;5.00;;;;;;;4.87;71.32;99266.39;107852;1254;73708;-72
2023/03/27 01:06:16;;;;;;;6.60;4.70;;;;;;;4.82;71.34;99270.10;108211;1254;61236;-71
2023/03/27 01:08:44;;;;;;;6.60;4.70;;;;;;;4.75;71.20;99264.55;107857;1254;61106;-70
2023/03/27 01:11:50;;;;;;;6.90;4.40;;;;;;;4.67;71.27;99259.55;108019;1254;74819;-71
2023/03/27 01:14:26;;;;;;;6.80;4.60;;;;;;;4.60;71.20;99263.60;108026;1258;73861;-71
2023/03/27 01:17:24;;;;;;;6.30;4.10;;;;;;;4.54;71.23;99267.67;107943;1256;72767;-72
2023/03/27 01:20:12;;;;;;;9.40;5.90;;;;;;;4.51;71.31;99268.58;107943;1256;61906;-72
2023/03/27 01:22:57;;;;;;;9.10;5.50;;;;;;;4.48;71.29;99268.77;108000;1254;61282;-71
2023/03/27 01:25:51;;;;;;;10.00;6.10;;;;;;;4.38;71.28;99268.30;107805;1256;74721;-70
2023/03/27 01:28:21;;;;;;;8.30;5.30;;;;;;;4.33;71.40;99266.38;108113;1254;72328;-74
2023/03/27 01:31:24;;;;;;;8.90;5.80;;;;;;;4.29;71.41;99269.09;107987;1254;73632;-72
2023/03/27 01:34:16;;;;;;;9.20;6.00;;;;;;;4.28;71.41;99268.52;107876;1254;61887;-71
2023/03/27 01:36:50;;;;;;;8.10;5.40;;;;;;;4.28;71.56;99265.79;107981;1254;61140;-71
2023/03/27 01:39:31;;;;;;;9.70;5.80;;;;;;;4.27;71.59;99262.08;108072;1254;75895;-73
2023/03/27 01:42:17;;;;;;;9.60;5.80;;;;;;;4.26;71.59;99259.23;108095;1254;72974;-71
2023/03/27 01:44:46;;;;;;;9.40;6.30;;;;;;;4.25;71.72;99262.06;108146;1254;72939;-71
2023/03/27 01:47:51;;;;;;;9.70;6.00;;;;;;;4.21;71.59;99263.08;107990;1254;61255;-71
2023/03/27 01:50:33;;;;;;;11.50;6.30;;;;;;;4.19;71.77;99266.96;108144;1254;61254;-71
2023/03/27 01:53:03;;;;;;;9.40;6.20;;;;;;;4.20;71.79;99265.65;108093;1254;74415;-71
2023/03/27 01:55:31;;;;;;;9.80;6.10;;;;;;;4.18;71.77;99262.66;108153;1254;74187;-70
2023/03/27 01:58:15;;;;;;;8.90;5.70;;;;;;;4.14;71.62;99264.84;108215;1254;72162;-71
2023/03/27 02:00:45;;;;;;;6.70;4.60;;;;;;;4.10;71.79;99262.67;107995;1254;61275;-71
2023/03/27 02:03:28;;;;;;;7.70;4.30;;;;;;;4.05;71.57;99257.23;108059;1255;59714;-71
2023/03/27 02:06:05;;;;;;;5.80;3.80;;;;;;;3.96;71.55;99261.45;107945;1257;72880;-71
2023/03/27 02:08:38;;;;;;;5.70;4.20;;;;;;;3.87;71.81;99263.30;108058;1257;73640;-70
2023/03/27 02:11:14;;;;;;;5.30;3.60;;;;;;;3.84;71.72;99266.27;107971;1254;73704;-71
2023/03/27 02:13:56;;;;;;;5.40;4.00;;;;;;;3.82;71.81;99263.48;107839;1254;62718;-71
2023/03/27 02:16:27;;;;;;;4.90;3.40;;;;;;;3.80;71.72;99267.58;107887;1254;61158;-71
2023/03/27 02:19:22;;;;;;;4.80;3.40;;;;;;;3.80;71.94;99273.49;107880;1254;74185;-71
2023/03/27 02:21:49;;;;;;;5.60;3.40;;;;;;;3.75;71.94;99273.06;108063;1254;72007;-71
2023/03/27 02:24:16;;;;;;;4.80;3.40;;;;;;;3.72;71.97;99273.56;108177;1254;72610;-71
2023/03/27 02:26:45;;;;;;;5.40;3.60;;;;;;;3.73;71.94;99276.68;107888;1254;62253;-70
2023/03/27 02:29:38;;;;;;;5.10;3.50;;;;;;;3.74;72.11;99274.27;108077;1254;59923;-71
2023/03/27 02:32:09;;;;;;;6.60;3.50;;;;;;;3.75;72.13;99281.68;108134;1254;74225;-71
2023/03/27 02:34:55;;;;;;;5.40;3.30;;;;;;;3.78;72.09;99287.92;108188;1254;72978;-70
2023/03/27 02:37:38;;;;;;;5.00;3.40;;;;;;;3.74;72.15;99287.11;108081;1254;72122;-72
2023/03/27 02:40:32;;;;;;;5.90;3.90;;;;;;;3.71;72.22;99287.00;108153;1254;61937;-70
2023/03/27 02:44:04;;;;;;;4.50;3.30;;;;;;;3.71;72.37;99279.92;108126;1254;61180;-70
2023/03/27 02:47:07;;;;;;;5.30;3.50;;;;;;;3.74;72.45;99284.14;108070;1254;74384;-70
2023/03/27 02:49:40;;;;;;;4.30;3.70;;;;;;;3.76;72.44;99290.25;108046;1254;72706;-70
2023/03/27 02:52:29;;;;;;;4.80;3.20;;;;;;;3.78;72.36;99291.94;107893;1254;70838;-70
2023/03/27 02:55:05;;;;;;;5.20;3.40;;;;;;;3.74;72.50;99292.91;107995;1254;61109;-71
2023/03/27 02:57:38;;;;;;;4.90;3.30;;;;;;;3.69;72.62;99303.14;108074;1254;61117;-71
2023/03/27 03:00:47;;;;;;;4.80;3.20;;;;;;;3.67;72.76;99305.75;107323;1254;5847977;-71
2023/03/27 03:03:58;;;;;;;5.00;3.20;;;;;;;3.67;72.68;99309.65;107584;1260;74885;-71
2023/03/27 03:06:53;;;;;;;4.40;3.20;;;;;;;3.69;72.85;99318.82;107512;1260;74276;-70
2023/03/27 03:09:19;;;;;;;4.50;3.50;;;;;;;3.71;72.77;99325.29;107908;1254;71664;-71
2023/03/27 03:11:48;;;;;;;5.20;3.20;;;;;;;3.73;72.72;99328.61;108033;1254;62248;-71
2023/03/27 03:14:20;;;;;;;5.10;3.50;;;;;;;3.73;72.63;99334.73;108074;1254;61368;-70
2023/03/27 03:16:47;;;;;;;4.40;3.40;;;;;;;3.72;72.73;99334.04;108026;1259;73829;-70
2023/03/27 03:19:24;;;;;;;5.70;3.80;;;;;;;3.71;72.58;99333.23;108128;1254;73750;-70
2023/03/27 03:21:51;;;;;;;5.70;3.40;;;;;;;3.69;72.55;99332.44;108025;1254;74392;-71
2023/03/27 03:24:20;;;;;;;4.40;3.50;;;;;;;3.68;72.62;99334.91;108033;1254;62203;-70
2023/03/27 03:26:50;;;;;;;4.90;3.20;;;;;;;3.66;72.54;99330.88;108019;1254;61334;-70
2023/03/27 03:29:18;;;;;;;4.50;3.50;;;;;;;3.64;72.38;99330.73;108001;1254;74516;-71
2023/03/27 03:31:58;;;;;;;4.50;3.20;;;;;;;3.55;72.34;99333.82;107991;1254;72444;-71
2023/03/27 03:34:26;;;;;;;4.60;3.30;;;;;;;3.45;72.45;99334.19;108003;1254;71942;-71
2023/03/27 03:36:54;;;;;;;4.20;2.90;;;;;;;3.39;72.53;99338.73;108096;1254;61264;-73
2023/03/27 03:39:31;;;;;;;3.90;2.90;;;;;;;3.30;72.46;99340.08;108055;1254;61986;-71
2023/03/27 03:41:59;;;;;;;4.00;2.90;;;;;;;3.19;72.64;99337.78;107978;1255;74552;-71
2023/03/27 03:44:26;;;;;;;5.50;3.30;;;;;;;3.14;72.69;99333.15;109071;1253;72881;-70
2023/03/27 03:46:53;;;;;;;5.00;3.10;;;;;;;3.14;72.90;99339.11;108397;1254;73307;-71
2023/03/27 03:49:20;;;;;;;4.30;2.90;;;;;;;3.09;72.70;99339.34;108173;1254;62042;-70
2023/03/27 03:51:53;;;;;;;5.40;3.50;;;;;;;3.01;72.84;99340.32;108120;1256;61678;-70
2023/03/27 03:54:31;;;;;;;6.30;3.80;;;;;;;2.98;73.07;99344.27;108107;1253;75728;-70
2023/03/27 03:56:58;;;;;;;9.50;5.70;;;;;;;2.94;73.03;99346.84;108216;1253;72759;-71
2023/03/27 03:59:26;;;;;;;10.20;5.50;;;;;;;2.91;73.05;99347.89;107974;1254;71831;-71
2023/03/27 04:02:30;;;;;;;9.10;5.80;;;;;;;2.91;73.29;99344.56;108225;1254;61292;-71
2023/03/27 04:05:03;;;;;;;10.40;7.20;;;;;;;2.94;73.45;99353.59;108117;1256;61272;-72
2023/03/27 04:07:36;;;;;;;10.80;6.30;;;;;;;2.97;73.49;99351.90;108270;1256;75604;-69
2023/03/27 04:10:31;;;;;;;12.30;6.80;;;;;;;3.03;73.49;99353.50;108052;1254;72707;-70
2023/03/27 04:12:59;;;;;;;9.30;6.40;;;;;;;3.12;73.61;99355.23;108094;1254;72768;-71
2023/03/27 04:15:32;;;;;;;10.30;6.20;;;;;;;3.21;73.57;99354.91;108088;1254;60156;-71
2023/03/27 04:18:20;;;;;;;10.70;5.80;;;;;;;3.28;73.68;99362.69;108259;1254;61111;-71
2023/03/27 04:20:53;;;;;;;8.70;5.80;;;;;;;3.34;73.57;99359.56;108181;1254;75890;-71
2023/03/27 04:23:20;;;;;;;8.10;5.40;;;;;;;3.39;73.70;99367.32;108181;1253;72828;-71
2023/03/27 04:25:47;;;;;;;7.30;5.10;;;;;;;3.48;73.79;99365.17;108298;1253;71522;-70
2023/03/27 04:28:20;;;;;;;6.40;4.80;;;;;;;3.59;73.93;99365.52;108304;1253;61125;-71
2023/03/27 04:30:52;;;;;;;8.00;4.80;;;;;;;3.69;73.97;99364.41;108239;1254;61131;-71
2023/03/27 04:33:38;;;;;;;6.80;4.80;;;;;;;3.82;74.15;99364.86;108313;1254;73584;-70
2023/03/27 04:36:24;;;;;;;6.00;4.70;;;;;;;3.94;74.15;99364.09;108215;1254;73919;-71
2023/03/27 04:39:15;;;;;;;6.10;5.00;;;;;;;4.09;74.36;99359.90;108104;1254;73178;-70
2023/03/27 04:41:50;;;;;;;7.70;5.40;;;;;;;4.23;74.36;99355.80;108109;1254;62307;-71
2023/03/27 04:44:18;;;;;;;5.80;4.40;;;;;;;4.36;74.60;99352.13;108128;1254;61211;-71
2023/03/27 04:46:48;;;;;;;5.50;4.30;;;;;;;4.51;74.69;99354.58;108022;1254;75711;-71
2023/03/27 04:49:19;;;;;;;5.50;4.20;;;;;;;4.64;74.78;99347.79;108181;1254;73921;-71
2023/03/27 04:51:52;;;;;;;5.30;4.20;;;;;;;4.76;74.89;99348.66;107929;1254;73786;-72
2023/03/27 04:54:25;;;;;;;6.40;4.90;;;;;;;4.89;75.11;99349.40;107990;1256;61526;-71
2023/03/27 04:56:53;;;;;;;6.10;3.90;;;;;;;5.02;75.11;99349.06;108149;1254;61776;-71
2023/03/27 04:59:21;;;;;;;5.50;4.30;;;;;;;5.12;75.12;99350.52;108122;1254;74201;-71
2023/03/27 05:02:05;;;;;;;7.10;5.00;;;;;;;5.21;75.22;99354.46;107952;1254;71822;-71
2023/03/27 05:04:44;;;;;;;6.60;4.70;;;;;;;5.27;75.20;99354.68;108064;1254;73559;-71
2023/03/27 05:07:18;;;;;;;6.90;4.60;;;;;;;5.37;75.35;99357.84;108101;1254;62242;-70
2023/03/27 05:09:45;;;;;;;7.70;5.20;;;;;;;5.50;75.30;99358.79;107976;1254;61097;-70
2023/03/27 05:12:12;;;;;;;5.90;4.40;;;;;;;5.62;75.30;99358.84;108071;1254;73986;-70
2023/03/27 05:14:47;;;;;;;6.80;4.70;;;;;;;5.78;75.48;99357.36;108041;1253;71215;-71
2023/03/27 05:17:29;;;;;;;6.10;4.80;;;;;;;5.93;75.45;99362.73;108106;1256;73698;-72
2023/03/27 05:19:56;;;;;;;7.10;4.70;;;;;;;6.08;75.40;99365.91;108025;1254;61262;-72
2023/03/27 05:22:24;;;;;;;6.10;4.50;;;;;;;6.23;75.36;99368.86;108169;1253;61446;-71
2023/03/27 05:24:58;;;;;;;6.50;4.50;;;;;;;6.40;75.37;99367.98;107991;1254;75741;-71
2023/03/27 05:27:30;;;;;;;6.50;4.50;;;;;;;6.56;75.20;99374.42;108096;1254;73700;-72
2023/03/27 05:29:56;;;;;;;6.00;4.40;;;;;;;6.72;75.24;99378.20;108009;1254;72884;-71
2023/03/27 05:32:23;;;;;;;7.10;4.70;;;;;;;6.89;75.12;99378.52;107906;1254;62094;-72
2023/03/27 05:35:00;;;;;;;5.90;4.60;;;;;;;7.06;75.02;99380.78;108363;1254;61277;-71
2023/03/27 05:37:32;;;;;;;;;;;;;;;7.24;74.85;99386.95;108004;1256;74814;-71
2023/03/27 05:40:25;;;;;;;6.40;4.50;;;;;;;7.43;74.75;99378.92;107984;1254;72417;-71
2023/03/27 05:42:54;;;;;;;6.00;4.40;;;;;;;7.58;74.56;99379.04;108017;1254;72028;-71
2023/03/27 05:45:21;;;;;;;8.10;5.30;;;;;;;7.71;74.26;99378.78;108058;1253;61217;-72
2023/03/27 05:47:54;;;;;;;8.40;5.40;;;;;;;7.84;74.07;99380.20;108098;1254;61551;-72
2023/03/27 05:50:24;;;;;;;;;;;;;;;7.96;73.74;99374.28;108158;1254;75516;-72
2023/03/27 05:52:57;;;;;;;7.10;4.40;;;;;;;8.10;73.38;99373.25;108189;1254;73002;-71
2023/03/27 05:55:31;;;;;;;6.80;4.30;;;;;;;8.22;73.06;99368.59;108218;1254;72416;-72
2023/03/27 05:57:58;;;;;;;5.50;4.00;;;;;;;8.35;72.55;99369.99;108121;1254;61314;-72
2023/03/27 06:00:30;;;;;;;6.90;4.40;;;;;;;8.48;72.27;99373.60;107984;1254;61326;-73
2023/03/27 06:02:59;;;;;;;6.60;4.10;;;;;;;8.61;72.01;99370.52;108158;1254;75479;-72
2023/03/27 06:05:40;;;;;;;6.40;4.40;;;;;;;8.75;71.61;99375.89;107998;1254;72975;-72
2023/03/27 06:08:09;;;;;;;5.50;4.10;;;;;;;8.86;71.20;99374.72;107991;1254;73740;-72
2023/03/27 06:10:39;;;;;;;6.80;4.40;;;;;;;8.97;70.80;99372.20;107989;1254;62303;-71
2023/03/27 06:13:30;;;;;;;7.70;4.10;;;;;;;9.10;70.44;99370.58;108187;1253;61259;-71
2023/03/27 06:16:05;;;;;;;6.40;3.40;;;;;;;9.23;70.00;99367.57;108185;1254;74586;-72
2023/03/27 06:18:38;;;;;;;5.40;3.40;;;;;;;9.37;69.57;99367.95;108249;1254;70833;-72
2023/03/27 06:21:07;;;;;;;6.10;3.90;;;;;;;9.51;68.65;99367.05;108274;1256;73231;-73
2023/03/27 06:23:40;;;;;;;5.70;3.40;;;;;;;9.58;67.95;99366.84;108156;1253;61107;-73
2023/03/27 06:26:10;;;;;;;6.00;3.60;;;;;;;9.66;67.19;99364.20;108293;1253;61174;-72
2023/03/27 06:28:41;;;;;;;6.00;3.10;;;;;;;9.74;66.67;99368.88;108327;1253;75305;-72
2023/03/27 06:31:08;;;;;;;6.30;3.60;;;;;;;9.86;66.32;99372.09;108315;1253;72131;-73
2023/03/27 06:33:51;;;;;;;6.10;3.20;;;;;;;10.01;65.98;99375.14;108205;1254;72007;-73
2023/03/27 06:36:32;;;;;;;5.30;3.50;;;;;;;10.15;65.31;99369.94;108268;1253;61732;-73
2023/03/27 06:39:05;;;;;;;5.50;3.50;;;;;;;10.29;65.00;99370.34;108345;1254;59607;-72
2023/03/27 06:41:33;;;;;;;6.70;3.30;;;;;;;10.42;64.55;99373.77;108304;1254;75479;-73
2023/03/27 06:44:18;;;;;;;5.30;3.40;;;;;;;10.53;64.20;99371.20;108289;1254;73547;-72
2023/03/27 06:47:05;;;;;;;4.60;3.10;;;;;;;10.64;63.93;99368.65;108133;1253;71474;-72
2023/03/27 06:49:39;;;;;;;5.70;3.60;;;;;;;10.76;64.06;99362.14;108259;1253;63215;-72
2023/03/27 06:52:13;;;;;;;4.90;3.40;;;;;;;10.89;64.11;99366.10;108132;1253;61166;-72
2023/03/27 06:54:43;;;;;;;6.00;3.50;;;;;;;11.02;63.96;99372.80;108327;1254;74295;-73
2023/03/27 06:57:11;;;;;;;5.70;3.60;;;;;;;11.16;63.37;99373.95;108289;1253;72135;-73
2023/03/27 07:00:21;;;;;;;5.20;3.40;;;;;;;11.30;62.71;99370.75;108158;1254;71821;-73
2023/03/27 07:03:22;;;;;;;4.70;3.20;;;;;;;11.45;61.92;99366.58;107887;1254;62980;-72
2023/03/27 07:06:09;;;;;;;4.30;2.90;;;;;;;11.57;61.26;99369.33;108211;1254;61592;-72
2023/03/27 07:08:49;;;;;;;4.60;3.00;;;;;;;11.69;60.87;99364.25;108181;1258;76294;-71
2023/03/27 07:11:17;;;;;;;5.10;3.30;;;;;;;11.83;60.74;99363.02;108050;1254;73099;-72
2023/03/27 07:13:53;;;;;;;4.60;3.10;;;;;;;11.97;60.20;99358.46;108162;1258;72724;-72
2023/03/27 07:16:27;;;;;;;4.20;2.90;;;;;;;12.11;59.77;99357.72;108029;1254;61286;-73
2023/03/27 07:19:00;;;;;;;4.80;2.80;;;;;;;12.15;58.85;99355.48;108031;1254;61154;-73
2023/03/27 07:21:29;;;;;;;5.70;2.60;;;;;;;12.15;58.73;99359.79;108178;1254;75134;-72
2023/03/27 07:23:58;;;;;;;4.70;2.80;;;;;;;12.18;58.80;99358.81;108223;1254;72973;-72
2023/03/27 07:26:36;;;;;;;4.30;2.70;;;;;;;12.28;58.70;99357.98;108220;1254;72862;-72
2023/03/27 07:29:10;;;;;;;4.30;2.60;;;;;;;12.40;58.54;99360.27;108192;1254;61139;-73
2023/03/27 07:31:38;;;;;;;3.80;2.50;;;;;;;12.53;58.27;99360.45;108171;1254;61362;-72
2023/03/27 07:34:38;;;;;;;4.40;2.40;;;;;;;12.60;57.52;99361.84;108152;1258;75653;-72
2023/03/27 07:37:05;;;;;;;4.00;2.60;;;;;;;12.68;57.33;99361.04;108119;1254;71842;-73
2023/03/27 07:39:32;;;;;;;4.70;2.50;;;;;;;12.75;57.09;99362.71;108168;1254;73307;-74
2023/03/27 07:42:04;;;;;;;4.60;2.60;;;;;;;12.82;56.98;99365.89;108087;1254;61407;-74
2023/03/27 07:44:52;;;;;;;4.90;2.80;;;;;;;12.96;56.71;99364.69;108171;1254;61154;-72
2023/03/27 07:47:20;;;;;;;5.40;2.40;;;;;;;13.09;56.48;99368.95;108063;1254;75577;-73
2023/03/27 07:49:47;;;;;;;4.40;2.80;;;;;;;13.24;56.38;99365.36;108085;1254;73880;-73
2023/03/27 07:52:16;;;;;;;3.90;2.40;;;;;;;13.43;55.91;99365.63;108008;1254;73362;-73
2023/03/27 07:55:05;;;;;;;4.10;2.30;;;;;;;13.55;55.23;99365.65;108151;1254;62984;-74
2023/03/27 07:57:55;;;;;;;4.30;2.30;;;;;;;13.70;55.16;99361.89;108163;1254;61530;-74
2023/03/27 08:00:52;;;;;;;4.00;2.60;;;;;;;13.84;54.49;99358.00;108151;1254;74355;-73
2023/03/27 08:03:43;;;;;;;4.40;2.60;;;;;;;13.88;53.75;99357.86;108159;1254;71779;-73
2023/03/27 08:06:21;;;;;;;5.00;2.60;;;;;;;13.90;54.01;99356.30;107844;1257;73751;-72
2023/03/27 08:09:11;;;;;;;3.80;2.30;;;;;;;14.03;53.85;99357.94;107855;1257;61813;-73
2023/03/27 08:11:46;;;;;;;4.70;2.40;;;;;;;14.11;53.24;99354.03;108235;1254;60825;-73
2023/03/27 08:14:15;;;;;;;3.20;2.10;;;;;;;14.19;52.96;99353.67;108255;1254;73990;-75
2023/03/27 08:16:43;;;;;;;3.10;2.00;;;;;;;14.30;52.79;99351.10;108032;1254;72792;-71
2023/03/27 08:19:14;;;;;;;4.10;2.20;;;;;;;14.43;52.59;99349.95;108227;1254;72765;-73
2023/03/27 08:22:00;;;;;;;4.10;2.20;;;;;;;14.57;52.13;99349.53;108040;1254;62119;-73
2023/03/27 08:25:00;;;;;;;3.20;1.90;;;;;;;14.64;51.92;99350.12;108178;1254;61630;-73
2023/03/27 08:27:38;;;;;;;4.00;2.30;;;;;;;14.73;51.70;99352.53;108096;1254;73450;-73
2023/03/27 08:30:22;;;;;;;4.30;1.90;;;;;;;14.88;51.55;99352.71;108167;1254;73639;-74
2023/03/27 08:33:13;;;;;;;;;;;;;;;15.05;51.28;99356.96;108167;1254;72634;-73
2023/03/27 08:36:00;;;;;;;2.90;1.70;;;;;;;15.20;50.41;99351.55;108030;1254;61279;-74
2023/03/27 08:38:42;;;;;;;3.60;2.00;;;;;;;15.27;49.71;99352.63;108213;1254;61241;-73
2023/03/27 08:41:55;;;;;;;3.60;1.60;;;;;;;15.34;49.51;99349.94;108112;1254;75621;-70
2023/03/27 08:44:58;;;;;;;3.20;1.70;;;;;;;15.43;48.36;99347.78;107969;1254;73162;-72
2023/03/27 08:48:18;;;;;;;3.10;1.30;;;;;;;15.46;48.21;99343.95;108031;1259;72821;-73
2023/03/27 08:51:02;;;;;;;3.20;1.20;;;;;;;15.55;47.86;99338.91;108022;1254;61336;-72
2023/03/27 08:53:50;;;;;;;2.70;1.50;;;;;;;15.69;47.81;99342.09;108176;1260;61208;-71
2023/03/27 08:56:37;;;;;;;3.60;1.50;;;;;;;15.86;47.76;99330.86;108152;1254;74900;-72
2023/03/27 08:59:14;;;;;;;2.50;1.30;;;;;;;15.98;47.45;99327.91;108100;1254;73667;-73
2023/03/27 09:02:08;;;;;;;3.10;1.60;;;;;;;16.12;47.13;99326.59;108160;1260;73669;-72
2023/03/27 09:05:04;;;;;;;2.60;1.50;;;;;;;16.28;46.76;99332.41;108055;1254;60260;-73
2023/03/27 09:07:58;;;;;;;3.10;1.30;;;;;;;16.42;46.49;99328.11;108132;1254;61208;-73
2023/03/27 09:10:53;;;;;;;2.90;1.50;;;;;;;16.56;45.85;99327.25;108148;1254;75547;-72
2023/03/27 09:13:44;;;;;;;3.10;1.60;;;;;;;16.59;45.12;99322.54;108115;1254;72573;-73
2023/03/27 09:16:48;;;;;;;2.60;1.50;;;;;;;16.59;45.22;99320.29;108166;1258;72858;-71
2023/03/27 09:20:11;;;;;;;2.60;1.30;;;;;;;16.62;45.12;99320.39;108045;1254;61153;-71
2023/03/27 09:23:23;;;;;;;2.80;1.40;;;;;;;16.73;45.14;99317.17;108103;1254;61253;-73
2023/03/27 09:26:24;;;;;;;2.40;1.10;;;;;;;16.84;44.97;99315.92;108179;1254;75631;-72
2023/03/27 09:29:30;;;;;;;2.90;1.30;;;;;;;16.98;44.34;99314.13;108195;1254;73884;-72
2023/03/27 09:32:58;;;;;;;3.50;1.70;;;;;;;17.23;44.01;99314.25;108063;1254;72118;-71
2023/03/27 09:35:45;;;;;;;3.50;1.80;;;;;;;17.47;43.56;99313.12;108039;1254;61106;-72
2023/03/27 09:38:49;;;;;;;2.70;1.50;;;;;;;17.74;42.38;99310.79;108168;1254;61525;-72
2023/03/27 09:41:51;;;;;;;4.10;1.90;;;;;;;17.84;41.58;99309.14;108168;1254;73422;-72
2023/03/27 09:44:35;;;;;;;2.90;1.70;;;;;;;17.78;41.21;99308.09;108188;1253;72997;-75
2023/03/27 09:47:37;;;;;;;3.30;1.40;;;;;;;17.81;41.47;99305.25;108081;1254;73019;-72
2023/03/27 09:50:41;;;;;;;2.50;1.30;;;;;;;17.85;40.97;99302.29;108114;1254;61246;-71
2023/03/27 09:53:21;;;;;;;2.50;1.40;;;;;;;17.92;40.96;99301.51;108182;1254;61138;-71
2023/03/27 09:56:15;;;;;;;2.10;1.10;;;;;;;18.04;40.66;99297.58;108125;1254;75560;-74
2023/03/27 09:59:03;;;;;;;4.00;1.50;;;;;;;18.12;40.25;99300.61;107994;1259;73460;-73
2023/03/27 10:01:38;;;;;;;2.80;1.70;;;;;;;18.09;39.98;99298.59;108185;1254;73475;-71
2023/03/27 10:04:17;;;;;;;2.40;1.30;;;;;;;18.01;39.51;99298.13;107991;1254;61124;-72
2023/03/27 10:07:09;;;;;;;2.90;1.40;;;;;;;17.92;39.78;99295.26;108198;1254;61105;-73
2023/03/27 10:10:26;;;;;;;2.40;1.30;;;;;;;17.91;40.00;99294.77;108152;1254;74754;-73
2023/03/27 10:13:08;;;;;;;3.00;1.00;;;;;;;17.93;39.91;99296.55;108177;1254;73591;-73
2023/03/27 10:15:42;;;;;;;2.60;1.50;;;;;;;18.02;39.79;99293.50;108008;1254;72226;-72
2023/03/27 10:18:29;;;;;;;2.50;1.30;;;;;;;18.17;39.71;99288.66;107996;1260;61084;-72
2023/03/27 10:21:37;;;;;;;2.20;1.20;;;;;;;18.43;38.70;99285.58;108148;1254;61244;-72
2023/03/27 10:24:40;;;;;;;3.30;1.50;;;;;;;18.57;38.21;99289.95;108056;1254;75633;-72
2023/03/27 10:28:24;;;;;;;1.90;1.00;;;;;;;18.65;37.97;99290.09;107429;1262;73752;-73
2023/03/27 10:31:28;;;;;;;2.30;1.10;;;;;;;18.82;38.05;99289.23;107420;1262;73610;-73
2023/03/27 10:34:35;;;;;;;3.20;1.40;;;;;;;19.05;37.71;99290.33;108136;1254;61134;-72
2023/03/27 10:37:43;;;;;;;2.80;1.10;;;;;;;19.14;37.09;99289.58;108166;1254;61462;-72
2023/03/27 10:40:31;;;;;;;2.60;1.10;;;;;;;19.22;37.07;99290.73;107992;1254;75485;-73
2023/03/27 10:43:44;;;;;;;3.30;1.30;;;;;;;19.32;36.97;99289.44;108139;1254;73685;-72
2023/03/27 10:46:38;;;;;;;2.40;1.20;;;;;;;19.35;36.53;99287.68;108076;1260;72778;-72
2023/03/27 10:49:59;;;;;;;1.90;1.20;;;;;;;19.26;36.49;99288.29;107946;1254;61897;-72
2023/03/27 10:52:38;;;;;;;2.50;1.30;;;;;;;19.21;36.61;99285.14;108048;1257;61205;-73
2023/03/27 10:55:30;;;;;;;1.90;1.00;;;;;;;19.28;36.33;99280.19;107990;1255;74631;-71
2023/03/27 10:58:02;;;;;;;3.10;1.20;;;;;;;19.38;36.54;99276.79;107918;1256;73751;-72
2023/03/27 11:00:36;;;;;;;2.80;1.10;;;;;;;19.57;36.08;99277.24;108119;1255;73214;-71
2023/03/27 11:03:13;;;;;;;2.50;1.20;;;;;;;19.66;35.75;99271.40;108026;1258;61257;-72
2023/03/27 11:05:43;;;;;;;2.30;1.00;;;;;;;19.64;35.54;99270.55;108212;1254;61253;-73
2023/03/27 11:09:04;;;;;;;2.20;1.20;;;;;;;19.58;35.17;99267.23;108135;1254;74162;-73
2023/03/27 11:11:36;;;;;;;2.60;1.10;;;;;;;19.51;35.48;99263.72;108224;1254;72854;-73
2023/03/27 11:14:05;;;;;;;2.00;0.90;;;;;;;19.46;35.50;99262.11;108021;1254;71993;-73
2023/03/27 11:16:38;;;;;;;2.70;1.10;;;;;;;19.34;35.31;99263.29;108032;1254;61219;-72
2023/03/27 11:19:42;;;;;;;2.20;1.20;;;;;;;19.23;35.33;99262.44;107850;1254;61473;-72
2023/03/27 11:22:35;;;;;;;2.30;1.10;;;;;;;19.10;35.13;99262.96;108165;1254;75035;-71
2023/03/27 11:25:04;;;;;;;2.80;1.10;;;;;;;18.88;34.74;99265.27;108214;1254;72279;-74
2023/03/27 11:27:38;;;;;;;1.60;0.90;;;;;;;18.66;35.42;99257.97;108067;1254;72608;-72
2023/03/27 11:30:26;;;;;;;2.00;1.10;;;;;;;18.53;35.63;99254.22;108125;1254;61512;-71
2023/03/27 11:33:24;;;;;;;2.00;1.00;;;;;;;18.49;35.79;99252.94;108208;1254;61253;-71
2023/03/27 11:36:18;;;;;;;2.00;0.90;;;;;;;18.49;35.91;99249.16;108080;1259;74084;-72
2023/03/27 11:39:06;;;;;;;3.00;1.50;;;;;;;18.48;36.09;99248.42;108241;1254;73529;-70
2023/03/27 11:41:33;;;;;;;2.80;1.30;;;;;;;18.46;35.80;99246.66;108173;1254;72769;-72
2023/03/27 11:44:05;;;;;;;1.80;1.10;;;;;;;18.41;36.17;99246.29;108168;1254;61475;-73
2023/03/27 11:47:11;;;;;;;2.90;1.40;;;;;;;18.42;36.65;99241.85;108139;1254;61311;-72
2023/03/27 11:50:17;;;;;;;2.90;1.30;;;;;;;18.53;36.65;99239.30;108064;1254;74536;-73
2023/03/27 11:52:50;;;;;;;2.00;1.10;;;;;;;18.65;36.16;99239.72;108162;1254;71177;-72
2023/03/27 11:55:51;;;;;;;2.10;1.10;;;;;;;18.68;36.07;99237.17;108060;1254;72657;-71
2023/03/27 11:58:35;;;;;;;2.80;1.30;;;;;;;18.69;35.76;99234.27;108158;1254;61099;-73
2023/03/27 12:01:26;;;;;;;1.80;1.00;;;;;;;18.70;35.26;99231.66;108210;1254;61104;-72
2023/03/27 12:04:14;;;;;;;4.30;1.30;;;;;;;18.54;34.48;99229.74;108101;1254;73839;-70
2023/03/27 12:07:02;;;;;;;3.40;1.20;;;;;;;18.40;35.15;99228.19;108143;1254;73938;-71
2023/03/27 12:09:46;;;;;;;2.10;1.00;;;;;;;18.35;35.43;99223.09;108173;1254;73907;-73
2023/03/27 12:13:16;;;;;;;2.50;1.10;;;;;;;18.34;35.02;99219.34;108134;1254;61119;-71
2023/03/27 12:16:14;;;;;;;2.10;1.10;;;;;;;18.35;35.29;99222.25;108174;1254;61214;-72
2023/03/27 12:19:08;;;;;;;2.30;0.90;;;;;;;18.40;35.09;99224.64;108207;1254;75829;-72
2023/03/27 12:22:36;;;;;;;2.20;1.00;;;;;;;18.39;34.69;99225.84;108188;1254;73921;-71
2023/03/27 12:25:17;;;;;;;3.10;1.00;;;;;;;18.34;34.66;99225.52;108051;1254;72822;-71
2023/03/27 12:28:18;;;;;;;3.00;1.10;;;;;;;18.25;34.67;99227.35;108166;1259;61738;-72
2023/03/27 12:31:51;;;;;;;2.70;1.00;;;;;;;18.15;34.71;99222.95;108147;1254;61230;-73
2023/03/27 12:34:53;;;;;;;2.60;1.00;;;;;;;18.05;35.08;99223.36;108055;1254;74666;-72
2023/03/27 12:37:29;;;;;;;2.20;0.90;;;;;;;17.98;35.48;99222.20;108178;1254;73130;-72